Time;durP1;ratioP1;P1;durP2;ratioP2;P2;SDS_P1;SDS_P2;PMS_P1;PMS_P2;Temp;Humidity;BMP_temperature;BMP_pressure;BME280_temperature;BME280_humidity;BME280_pressure;Samples;Min_cycle;Max_cycle;Signal;HPM_P1;HPM_P2
2022/12/06 00:00:21;;;;;;;22.08;16.52;;;3.70;99.90;;;;;;4999140;28;20026;-61
2022/12/06 00:03:06;;;;;;;23.52;16.77;;;3.80;99.90;;;;;;4983150;28;20022;-63
2022/12/06 00:05:58;;;;;;;22.45;16.10;;;3.70;99.90;;;;;;5005386;28;20042;-63
2022/12/06 00:08:46;;;;;;;22.70;16.27;;;3.60;99.90;;;;;;5007942;28;20038;-62
2022/12/06 00:11:37;;;;;;;21.77;17.20;;;3.60;99.90;;;;;;4985818;28;20047;-62
2022/12/06 00:14:24;;;;;;;22.38;16.45;;;3.60;99.90;;;;;;4989911;28;20038;-61
2022/12/06 00:17:10;;;;;;;21.65;15.82;;;3.60;99.90;;;;;;5012601;28;20026;-62
2022/12/06 00:19:56;;;;;;;24.88;16.38;;;3.60;99.90;;;;;;5028419;28;20026;-62
2022/12/06 00:22:44;;;;;;;20.80;15.68;;;3.60;99.90;;;;;;5025367;28;20069;-61
2022/12/06 00:25:30;;;;;;;21.75;16.65;;;3.70;99.90;;;;;;5023396;28;20575;-59
2022/12/06 00:28:16;;;;;;;21.15;15.85;;;3.70;99.90;;;;;;4989744;28;20106;-61
2022/12/06 00:31:06;;;;;;;21.38;17.40;;;3.60;99.90;;;;;;5015821;28;20114;-60
2022/12/06 00:33:52;;;;;;;22.75;16.70;;;3.60;99.90;;;;;;5029797;28;20403;-59
2022/12/06 00:36:40;;;;;;;23.30;16.90;;;3.60;99.90;;;;;;5018143;28;20073;-60
2022/12/06 00:39:26;;;;;;;24.38;17.48;;;3.50;99.90;;;;;;5015991;28;20038;-60
2022/12/06 00:42:11;;;;;;;24.15;16.70;;;3.50;99.90;;;;;;4991820;28;20117;-59
2022/12/06 00:44:57;;;;;;;20.77;16.13;;;3.50;99.90;;;;;;4987643;28;20033;-55
2022/12/06 00:47:43;;;;;;;23.10;16.20;;;3.50;99.90;;;;;;5012354;28;20038;-59
2022/12/06 00:50:29;;;;;;;23.13;16.65;;;3.50;99.90;;;;;;5011543;28;20034;-60
2022/12/06 00:53:15;;;;;;;22.25;16.67;;;3.50;99.90;;;;;;4999123;28;20095;-59
2022/12/06 00:56:02;;;;;;;23.63;16.52;;;3.50;99.90;;;;;;5012743;28;20090;-60
2022/12/06 00:58:48;;;;;;;26.13;17.55;;;3.50;99.90;;;;;;5012149;28;20149;-59
2022/12/06 01:01:34;;;;;;;22.50;16.65;;;3.50;99.90;;;;;;5012031;28;20048;-58
2022/12/06 01:04:20;;;;;;;20.40;15.07;;;3.50;99.90;;;;;;5012532;28;20402;-56
2022/12/06 01:07:06;;;;;;;25.70;16.70;;;3.50;99.90;;;;;;5012622;28;20152;-56
2022/12/06 01:09:52;;;;;;;24.65;16.98;;;3.60;99.90;;;;;;5011922;28;20034;-57
2022/12/06 01:12:38;;;;;;;20.77;16.20;;;3.60;99.90;;;;;;5002950;28;20032;-60
2022/12/06 01:15:26;;;;;;;24.05;16.25;;;3.70;99.90;;;;;;5011734;28;20046;-59
2022/12/06 01:18:12;;;;;;;22.60;15.30;;;3.70;99.90;;;;;;5004291;28;20028;-61
2022/12/06 01:21:10;;;;;;;21.25;15.00;;;3.70;99.90;;;;;;4990072;28;20045;-59
2022/12/06 01:23:56;;;;;;;21.77;15.05;;;3.60;99.90;;;;;;5010469;28;20061;-57
2022/12/06 01:26:42;;;;;;;21.15;16.00;;;3.70;99.90;;;;;;4992401;28;20070;-60
2022/12/06 01:29:28;;;;;;;23.23;15.60;;;3.70;99.90;;;;;;4978847;28;20034;-59
2022/12/06 01:32:14;;;;;;;20.85;15.38;;;3.80;99.90;;;;;;5011623;28;20044;-56
2022/12/06 01:35:00;;;;;;;22.58;14.73;;;3.70;99.90;;;;;;5011244;28;20747;-58
2022/12/06 01:37:46;;;;;;;19.65;14.57;;;3.70;99.90;;;;;;4997368;28;20037;-56
2022/12/06 01:40:40;;;;;;;18.92;14.23;;;3.80;99.90;;;;;;5011223;28;20799;-55
2022/12/06 01:43:39;;;;;;;19.80;14.48;;;3.80;99.90;;;;;;5011718;28;20034;-57
2022/12/06 01:46:43;;;;;;;20.77;14.73;;;3.70;99.90;;;;;;5011307;28;20042;-58
2022/12/06 01:49:33;;;;;;;20.67;15.05;;;3.70;99.90;;;;;;5011382;28;20034;-60
2022/12/06 01:52:23;;;;;;;19.73;15.13;;;3.80;99.90;;;;;;5011205;28;20033;-59
2022/12/06 01:55:11;;;;;;;20.67;14.15;;;3.80;99.90;;;;;;5010618;28;20553;-60
2022/12/06 01:58:02;;;;;;;21.58;15.70;;;3.70;99.90;;;;;;5011489;28;20026;-60
2022/12/06 02:00:48;;;;;;;22.50;14.80;;;3.80;99.90;;;;;;5011124;28;20101;-60
2022/12/06 02:03:35;;;;;;;21.70;14.77;;;3.70;99.90;;;;;;5011459;28;20038;-58
2022/12/06 02:06:21;;;;;;;20.35;13.63;;;3.80;99.90;;;;;;4992358;28;20038;-60
2022/12/06 02:09:10;;;;;;;18.13;14.68;;;3.80;99.90;;;;;;4994198;28;20041;-57
2022/12/06 02:11:56;;;;;;;20.88;14.60;;;3.70;99.90;;;;;;5010647;28;20552;-58
2022/12/06 02:14:45;;;;;;;19.98;14.70;;;3.70;99.90;;;;;;4995068;28;20043;-57
2022/12/06 02:17:49;;;;;;;21.90;14.93;;;3.70;99.90;;;;;;5001976;28;20022;-56
2022/12/06 02:20:49;;;;;;;18.58;13.55;;;3.70;99.90;;;;;;5003965;28;20033;-60
2022/12/06 02:23:47;;;;;;;20.10;13.63;;;3.70;99.90;;;;;;5009271;28;20034;-58
2022/12/06 02:26:43;;;;;;;22.45;14.75;;;3.80;99.90;;;;;;5008644;28;20034;-59
2022/12/06 02:30:10;;;;;;;17.98;13.00;;;3.60;99.90;;;;;;5008762;28;20037;-59
2022/12/06 02:33:06;;;;;;;17.85;12.57;;;3.60;99.90;;;;;;4997563;28;20099;-58
2022/12/06 02:36:14;;;;;;;18.77;13.73;;;3.60;99.90;;;;;;4998088;28;20040;-59
2022/12/06 02:39:08;;;;;;;19.92;13.77;;;3.50;99.90;;;;;;5007749;28;20394;-60
2022/12/06 02:42:02;;;;;;;18.85;14.13;;;3.40;99.90;;;;;;5006914;28;20022;-59
2022/12/06 02:45:03;;;;;;;20.75;14.93;;;3.40;99.90;;;;;;5008585;28;20450;-61
2022/12/06 02:47:51;;;;;;;20.80;14.80;;;3.30;99.90;;;;;;5005358;28;20037;-60
2022/12/06 02:50:45;;;;;;;19.42;14.10;;;3.20;99.90;;;;;;5011300;28;20077;-59
2022/12/06 02:53:35;;;;;;;23.53;16.00;;;3.10;99.90;;;;;;5012580;28;20105;-60
2022/12/06 02:56:22;;;;;;;20.98;14.77;;;3.00;99.90;;;;;;5014731;28;20022;-61
2022/12/06 02:59:09;;;;;;;22.70;15.68;;;3.00;99.90;;;;;;5015198;28;20029;-57
2022/12/06 03:01:58;;;;;;;22.15;16.02;;;2.90;99.90;;;;;;5014818;28;20029;-59
2022/12/06 03:04:56;;;;;;;20.50;15.30;;;3.00;99.90;;;;;;5015198;28;20044;-59
2022/12/06 03:07:45;;;;;;;23.27;14.68;;;3.00;99.90;;;;;;5000507;28;20030;-59
2022/12/06 03:10:43;;;;;;;24.35;15.55;;;3.00;99.90;;;;;;5015211;28;20033;-59
2022/12/06 03:13:36;;;;;;;20.17;13.82;;;3.10;99.90;;;;;;5014711;28;20026;-60
2022/12/06 03:16:27;;;;;;;20.65;15.00;;;3.10;99.90;;;;;;5014886;28;20022;-57
2022/12/06 03:19:20;;;;;;;20.20;14.60;;;3.00;99.90;;;;;;5014174;28;20026;-57
2022/12/06 03:22:42;;;;;;;22.92;15.55;;;3.10;99.90;;;;;;5014758;28;20022;-59
2022/12/06 03:25:29;;;;;;;20.35;13.77;;;3.10;99.90;;;;;;4965045;28;20046;-59
2022/12/06 03:28:17;;;;;;;22.25;14.40;;;3.10;99.90;;;;;;5001745;28;20045;-56
2022/12/06 03:31:08;;;;;;;21.20;14.73;;;3.20;99.90;;;;;;5014318;28;20391;-59
2022/12/06 03:33:59;;;;;;;24.70;14.60;;;3.20;99.90;;;;;;5000427;28;20226;-61
2022/12/06 03:36:48;;;;;;;22.90;14.35;;;3.30;99.90;;;;;;5014329;28;20084;-58
2022/12/06 03:39:42;;;;;;;20.58;14.63;;;3.30;99.90;;;;;;5014417;28;20049;-60
2022/12/06 03:42:28;;;;;;;18.70;14.07;;;3.30;99.90;;;;;;5014278;28;20026;-59
2022/12/06 03:45:15;;;;;;;22.38;14.85;;;3.30;99.90;;;;;;5014122;28;20128;-58
2022/12/06 03:48:11;;;;;;;21.80;14.35;;;3.30;99.90;;;;;;5014440;28;20045;-56
2022/12/06 03:51:04;;;;;;;19.85;14.95;;;3.30;99.90;;;;;;5014122;28;20402;-57
2022/12/06 03:53:52;;;;;;;19.20;14.02;;;3.40;99.90;;;;;;5014336;28;20038;-57
2022/12/06 03:56:38;;;;;;;27.92;16.58;;;3.40;99.90;;;;;;5014228;28;20026;-57
2022/12/06 03:59:24;;;;;;;22.02;14.57;;;3.40;99.90;;;;;;4999919;28;20042;-57
2022/12/06 04:02:10;;;;;;;23.67;15.50;;;3.30;99.90;;;;;;5013273;28;20037;-59
2022/12/06 04:04:57;;;;;;;23.42;15.27;;;3.30;99.90;;;;;;5014454;28;20030;-58
2022/12/06 04:07:43;;;;;;;22.83;15.27;;;3.30;99.90;;;;;;4986008;28;20037;-56
2022/12/06 04:10:28;;;;;;;23.27;15.23;;;3.30;99.90;;;;;;4999282;28;20049;-60
2022/12/06 04:13:15;;;;;;;27.17;16.38;;;3.10;99.90;;;;;;5013535;28;20121;-57
2022/12/06 04:16:01;;;;;;;22.88;15.15;;;3.10;99.90;;;;;;4983483;28;20029;-60
2022/12/06 04:18:47;;;;;;;25.67;15.77;;;3.20;99.90;;;;;;5012650;28;20026;-58
2022/12/06 04:24:19;;;;;;;26.92;16.40;;;3.20;99.90;;;;;;5014644;28;20581;-61
2022/12/06 04:39:23;;;;;;;25.27;16.77;;;3.00;99.90;;;;;;5014091;28;20069;-59
2022/12/06 04:45:16;;;;;;;24.35;15.85;;;3.20;99.90;;;;;;5012752;28;20486;-60
2022/12/06 04:48:02;;;;;;;26.83;16.65;;;3.30;99.90;;;;;;5013348;28;20045;-59
2022/12/06 04:50:49;;;;;;;22.08;14.75;;;3.40;99.90;;;;;;5012547;28;20049;-58
2022/12/06 04:53:35;;;;;;;25.17;15.63;;;3.50;99.90;;;;;;5013475;28;20573;-61
2022/12/06 04:56:21;;;;;;;25.58;15.95;;;3.50;99.90;;;;;;4979619;28;20089;-59
2022/12/06 04:59:07;;;;;;;24.77;16.08;;;3.30;99.90;;;;;;4994909;28;20073;-58
2022/12/06 05:01:54;;;;;;;26.08;15.82;;;3.30;99.90;;;;;;5013186;28;20072;-59
2022/12/06 05:04:40;;;;;;;27.92;14.75;;;3.40;99.90;;;;;;5013199;28;20053;-58
2022/12/06 05:07:26;;;;;;;24.60;15.25;;;3.60;99.90;;;;;;5012798;28;20026;-58
2022/12/06 05:10:12;;;;;;;22.48;13.60;;;3.50;99.90;;;;;;5012786;28;20069;-61
2022/12/06 05:12:58;;;;;;;23.95;14.43;;;3.50;99.90;;;;;;5011799;28;20034;-60
2022/12/06 05:15:52;;;;;;;24.65;14.73;;;3.50;99.90;;;;;;5012886;28;20556;-55
2022/12/06 05:18:38;;;;;;;22.75;14.55;;;3.50;99.90;;;;;;4997278;28;20053;-60
2022/12/06 05:21:24;;;;;;;22.77;15.65;;;3.40;99.90;;;;;;5012777;28;20418;-59
2022/12/06 05:24:10;;;;;;;24.20;15.27;;;3.30;99.90;;;;;;5012216;28;20032;-58
2022/12/06 05:26:56;;;;;;;27.90;16.45;;;3.20;99.90;;;;;;5012557;28;20038;-59
2022/12/06 05:29:42;;;;;;;23.27;15.27;;;3.20;99.90;;;;;;5011449;28;20150;-60
2022/12/06 05:32:28;;;;;;;25.08;14.75;;;3.10;99.90;;;;;;5012498;28;20084;-59
2022/12/06 05:35:14;;;;;;;23.05;15.43;;;3.20;99.90;;;;;;5013212;28;20038;-59
2022/12/06 05:38:00;;;;;;;23.63;15.45;;;3.10;99.90;;;;;;4977399;28;20046;-59
2022/12/06 05:40:49;;;;;;;26.02;15.80;;;3.00;99.90;;;;;;5010546;28;20038;-61
2022/12/06 05:43:35;;;;;;;26.98;15.20;;;2.90;99.90;;;;;;4990929;28;20550;-61
2022/12/06 05:46:21;;;;;;;29.73;15.73;;;3.00;99.90;;;;;;5008059;28;20046;-62
2022/12/06 05:49:07;;;;;;;30.10;17.95;;;2.80;99.90;;;;;;5011989;28;20040;-61
2022/12/06 05:51:53;;;;;;;25.65;15.38;;;2.90;99.90;;;;;;4996798;28;20457;-61
2022/12/06 05:54:39;;;;;;;29.85;15.68;;;3.00;99.90;;;;;;5010727;28;20034;-61
2022/12/06 05:57:25;;;;;;;30.67;16.42;;;3.00;99.90;;;;;;5012527;28;20062;-61
2022/12/06 06:00:11;;;;;;;28.70;15.73;;;2.90;99.90;;;;;;5011759;28;20022;-60
2022/12/06 06:02:57;;;;;;;28.23;16.15;;;2.90;99.90;;;;;;5011985;28;20057;-60
2022/12/06 06:05:49;;;;;;;27.80;17.65;;;2.90;99.90;;;;;;4978656;28;20085;-61
2022/12/06 06:08:35;;;;;;;24.15;15.82;;;2.90;99.90;;;;;;4994724;28;20030;-60
2022/12/06 06:11:20;;;;;;;27.38;16.27;;;2.90;99.90;;;;;;5011349;28;20115;-61
2022/12/06 06:14:06;;;;;;;24.88;14.95;;;3.00;99.90;;;;;;5010058;28;20391;-60
2022/12/06 06:16:52;;;;;;;23.92;14.63;;;3.00;99.90;;;;;;5011710;28;20030;-61
2022/12/06 06:19:38;;;;;;;25.50;15.70;;;2.90;99.90;;;;;;4995238;28;20026;-62
2022/12/06 06:22:25;;;;;;;24.75;15.18;;;2.90;99.90;;;;;;4996802;28;20025;-62
2022/12/06 06:25:10;;;;;;;22.27;14.75;;;3.10;99.90;;;;;;5011008;28;20541;-62
2022/12/06 06:27:56;;;;;;;27.38;14.52;;;3.00;99.90;;;;;;4999464;28;20038;-62
2022/12/06 06:30:43;;;;;;;24.60;15.50;;;3.10;99.90;;;;;;4997711;28;20026;-62
2022/12/06 06:33:29;;;;;;;20.83;13.60;;;3.20;99.90;;;;;;4996946;28;20034;-59
2022/12/06 06:36:15;;;;;;;22.80;13.50;;;3.20;99.90;;;;;;5010027;28;20032;-61
2022/12/06 06:39:01;;;;;;;28.17;14.70;;;3.20;99.90;;;;;;5010960;28;20446;-61
2022/12/06 06:41:47;;;;;;;24.58;15.40;;;3.10;99.90;;;;;;5011026;28;20022;-61
2022/12/06 06:44:33;;;;;;;21.60;14.07;;;3.20;99.90;;;;;;5009518;28;20049;-61
2022/12/06 06:47:20;;;;;;;22.15;14.13;;;3.20;99.90;;;;;;5011540;28;20034;-60
2022/12/06 06:50:06;;;;;;;20.55;13.75;;;3.20;99.90;;;;;;5011086;28;20458;-60
2022/12/06 06:52:52;;;;;;;27.13;16.63;;;3.10;99.90;;;;;;5011313;28;20030;-59
2022/12/06 06:55:38;;;;;;;24.75;15.02;;;3.10;99.90;;;;;;5011228;28;20094;-59
2022/12/06 06:58:24;;;;;;;25.45;14.82;;;3.20;99.90;;;;;;5011019;28;20049;-61
2022/12/06 07:01:18;;;;;;;23.95;15.40;;;3.10;99.90;;;;;;4993775;28;20026;-61
2022/12/06 07:04:04;;;;;;;25.23;14.85;;;3.00;99.90;;;;;;5011500;28;20069;-60
2022/12/06 07:06:50;;;;;;;20.98;14.35;;;3.10;99.90;;;;;;4995694;28;20073;-60
2022/12/06 07:09:36;;;;;;;25.40;15.02;;;3.10;99.90;;;;;;4995778;28;20066;-60
2022/12/06 07:12:22;;;;;;;23.50;14.27;;;3.20;99.90;;;;;;5010342;28;20048;-61
2022/12/06 07:15:08;;;;;;;20.42;13.32;;;3.10;99.90;;;;;;5011093;28;20480;-60
2022/12/06 07:17:54;;;;;;;18.63;13.35;;;3.20;99.90;;;;;;5010397;28;20026;-59
2022/12/06 07:20:40;;;;;;;21.40;14.18;;;3.30;99.90;;;;;;5011407;28;20108;-61
2022/12/06 07:23:26;;;;;;;22.00;14.85;;;3.20;99.90;;;;;;4996482;28;20402;-62
2022/12/06 07:26:17;;;;;;;23.13;14.23;;;3.10;99.90;;;;;;4999011;28;20482;-60
2022/12/06 07:29:03;;;;;;;21.70;13.63;;;3.20;99.90;;;;;;5010434;28;20034;-60
2022/12/06 07:31:49;;;;;;;23.83;14.30;;;3.10;99.90;;;;;;5007136;28;20030;-59
2022/12/06 07:34:35;;;;;;;21.60;14.38;;;3.20;99.90;;;;;;5001586;28;20482;-58
2022/12/06 07:37:21;;;;;;;18.08;12.90;;;3.20;99.90;;;;;;5011142;28;20040;-59
2022/12/06 07:40:08;;;;;;;24.30;14.57;;;3.10;99.90;;;;;;5011117;28;20076;-60
2022/12/06 07:45:59;;;;;;;21.40;13.20;;;3.10;99.90;;;;;;5014046;28;20030;-61
2022/12/06 07:48:45;;;;;;;18.83;13.23;;;3.30;99.90;;;;;;4994413;28;20108;-60
2022/12/06 07:51:31;;;;;;;20.27;13.43;;;3.40;99.90;;;;;;5013195;28;20517;-61
2022/12/06 07:54:16;;;;;;;23.77;14.13;;;3.40;99.90;;;;;;5014263;28;20683;-60
2022/12/06 07:57:02;;;;;;;17.77;13.05;;;3.40;99.90;;;;;;5014065;28;20036;-59
2022/12/06 07:59:48;;;;;;;19.38;13.88;;;3.50;99.90;;;;;;5012045;28;20378;-59
2022/12/06 08:02:34;;;;;;;19.80;14.02;;;3.50;99.90;;;;;;5008836;28;20033;-61
2022/12/06 08:05:20;;;;;;;21.02;13.23;;;3.60;99.90;;;;;;5008453;28;20438;-60
2022/12/06 08:08:06;;;;;;;18.35;13.15;;;3.50;99.90;;;;;;5009613;28;20044;-56
2022/12/06 08:10:52;;;;;;;30.25;19.20;;;3.50;99.90;;;;;;4993850;28;20044;-61
2022/12/06 08:13:38;;;;;;;22.98;14.70;;;3.60;99.90;;;;;;4996348;28;20049;-59
2022/12/06 08:16:24;;;;;;;17.17;12.38;;;3.60;99.90;;;;;;5010808;28;20026;-61
2022/12/06 08:19:10;;;;;;;19.70;12.63;;;3.60;99.90;;;;;;4998662;28;20495;-59
2022/12/06 08:21:56;;;;;;;18.33;12.38;;;3.70;99.90;;;;;;5013615;28;20040;-59
2022/12/06 08:24:42;;;;;;;21.35;14.00;;;3.70;99.90;;;;;;5012219;28;20026;-59
2022/12/06 08:27:28;;;;;;;16.27;11.45;;;3.60;99.90;;;;;;5014279;28;20038;-59
2022/12/06 08:30:15;;;;;;;17.40;11.82;;;3.60;99.90;;;;;;5011577;28;20049;-60
2022/12/06 08:33:00;;;;;;;17.35;12.13;;;3.60;99.90;;;;;;5005443;28;20546;-59
2022/12/06 08:35:48;;;;;;;18.23;11.65;;;3.60;99.90;;;;;;4994787;28;20026;-60
2022/12/06 08:38:35;;;;;;;17.83;11.27;;;3.50;99.90;;;;;;4992970;28;20065;-63
2022/12/06 08:44:28;;;;;;;17.05;11.93;;;3.40;99.90;;;;;;4992833;28;20031;-59
2022/12/06 08:47:14;;;;;;;14.50;10.88;;;3.40;99.90;;;;;;5005585;28;20240;-61
2022/12/06 08:50:00;;;;;;;15.40;11.35;;;3.40;99.90;;;;;;5009006;28;20030;-60
2022/12/06 08:52:46;;;;;;;17.33;11.60;;;3.30;99.90;;;;;;5003382;28;20585;-59
2022/12/06 08:55:32;;;;;;;17.13;11.30;;;3.00;99.90;;;;;;4981400;28;20041;-60
2022/12/06 08:58:18;;;;;;;17.13;10.75;;;3.10;99.90;;;;;;5010759;28;20033;-61
2022/12/06 09:01:19;;;;;;;15.77;11.15;;;3.10;99.90;;;;;;4995365;28;20029;-61
2022/12/06 09:04:08;;;;;;;16.08;11.07;;;3.30;99.90;;;;;;5002316;28;20036;-59
2022/12/06 09:06:54;;;;;;;16.15;11.07;;;3.40;99.90;;;;;;5002111;28;20029;-61
2022/12/06 09:09:40;;;;;;;14.05;10.70;;;3.50;99.90;;;;;;4994262;28;20085;-61
2022/12/06 09:12:26;;;;;;;13.88;10.00;;;3.60;99.90;;;;;;4993271;28;20117;-59
2022/12/06 09:15:11;;;;;;;15.18;10.65;;;3.50;99.90;;;;;;4979706;28;20041;-60
2022/12/06 09:17:57;;;;;;;13.07;10.23;;;3.40;99.90;;;;;;4993411;28;20026;-55
2022/12/06 09:20:43;;;;;;;13.95;10.20;;;3.40;99.90;;;;;;4999923;28;20434;-60
2022/12/06 09:23:29;;;;;;;13.32;10.40;;;3.30;99.90;;;;;;5005094;28;20104;-60
2022/12/06 09:26:15;;;;;;;12.88;9.50;;;3.30;99.90;;;;;;5007053;28;20313;-63
2022/12/06 09:29:01;;;;;;;15.88;10.85;;;3.30;99.90;;;;;;5005943;28;20022;-60
2022/12/06 09:31:47;;;;;;;12.82;9.88;;;3.10;99.90;;;;;;5012289;28;20637;-58
2022/12/06 09:34:33;;;;;;;13.15;10.18;;;3.10;99.90;;;;;;5006774;28;20022;-59
2022/12/06 09:37:19;;;;;;;15.57;11.05;;;3.00;99.90;;;;;;5018713;28;20052;-65
2022/12/06 09:40:15;;;;;;;14.85;10.25;;;3.00;99.90;;;;;;5003918;28;20053;-60
2022/12/06 09:43:36;;;;;;;14.65;11.20;;;3.30;99.90;;;;;;5021945;28;20022;-60
2022/12/06 09:46:57;;;;;;;14.00;10.73;;;3.20;99.90;;;;;;5027478;28;20109;-59
2022/12/06 09:50:07;;;;;;;14.70;11.18;;;3.10;99.90;;;;;;5020696;28;20037;-60
2022/12/06 09:53:35;;;;;;;14.52;10.75;;;3.10;99.90;;;;;;5003096;28;20124;-59
2022/12/06 09:56:49;;;;;;;15.15;11.63;;;3.10;99.90;;;;;;5007700;28;20509;-61
2022/12/06 09:59:47;;;;;;;13.48;10.45;;;3.10;99.90;;;;;;5010341;28;20407;-62
2022/12/06 10:02:48;;;;;;;20.83;11.80;;;3.10;99.90;;;;;;4998843;28;20018;-61
2022/12/06 10:05:49;;;;;;;14.60;11.30;;;3.00;99.90;;;;;;4995933;28;20402;-62
2022/12/06 10:08:56;;;;;;;14.23;11.10;;;3.00;99.90;;;;;;5011886;28;20120;-60
2022/12/06 10:12:06;;;;;;;16.55;11.57;;;2.90;99.90;;;;;;5011691;28;20029;-59
2022/12/06 10:15:07;;;;;;;16.23;11.82;;;2.90;99.90;;;;;;5011899;28;20080;-60
2022/12/06 10:18:08;;;;;;;16.63;11.48;;;2.80;99.90;;;;;;5003985;28;20394;-61
2022/12/06 10:21:12;;;;;;;16.35;11.27;;;2.80;99.90;;;;;;5011140;28;20056;-59
2022/12/06 10:24:16;;;;;;;13.25;10.70;;;3.00;99.90;;;;;;5003048;28;20036;-58
2022/12/06 10:27:13;;;;;;;15.25;11.27;;;2.80;99.90;;;;;;4997804;28;20029;-60
2022/12/06 10:30:12;;;;;;;17.23;11.95;;;2.90;99.90;;;;;;5009790;28;20026;-61
2022/12/06 10:33:18;;;;;;;14.25;12.15;;;2.90;99.90;;;;;;4997650;28;20034;-60
2022/12/06 10:36:06;;;;;;;17.95;11.75;;;2.90;99.90;;;;;;4992762;28;20045;-57
2022/12/06 10:39:03;;;;;;;14.13;11.82;;;2.80;99.90;;;;;;4987229;28;20077;-60
2022/12/06 10:41:58;;;;;;;14.55;10.93;;;2.90;99.90;;;;;;5011562;28;20022;-56
2022/12/06 10:44:50;;;;;;;15.02;11.57;;;2.90;99.90;;;;;;4995261;28;20759;-59
2022/12/06 10:47:43;;;;;;;16.00;12.02;;;2.90;99.90;;;;;;5011966;28;20030;-60
2022/12/06 10:50:35;;;;;;;14.30;10.82;;;2.80;99.90;;;;;;5010231;28;20064;-58
2022/12/06 10:53:24;;;;;;;15.52;11.30;;;2.90;99.90;;;;;;5006718;28;20117;-60
2022/12/06 10:56:21;;;;;;;16.00;11.13;;;2.90;99.90;;;;;;4998173;28;20632;-61
2022/12/06 10:59:38;;;;;;;15.90;12.13;;;2.90;99.90;;;;;;5006333;28;20125;-61
2022/12/06 11:02:34;;;;;;;;;;;2.70;99.90;;;;;;4999322;28;20062;-59
2022/12/06 11:05:35;;;;;;;14.75;11.90;;;2.60;99.90;;;;;;5008487;28;20468;-60
2022/12/06 11:08:27;;;;;;;14.60;11.13;;;2.60;99.90;;;;;;5010728;28;20179;-60
2022/12/06 11:11:32;;;;;;;17.08;12.60;;;2.70;99.90;;;;;;5009089;28;20033;-60
2022/12/06 11:14:34;;;;;;;17.42;12.07;;;2.80;99.90;;;;;;5005409;28;20149;-61
2022/12/06 11:17:24;;;;;;;13.48;10.50;;;2.90;99.90;;;;;;5004781;28;20521;-58
2022/12/06 11:20:25;;;;;;;18.15;12.32;;;2.80;99.90;;;;;;4997728;28;20091;-61
2022/12/06 11:23:26;;;;;;;13.52;10.30;;;2.80;99.90;;;;;;5014070;28;20033;-60
2022/12/06 11:26:31;;;;;;;16.67;11.73;;;2.80;99.90;;;;;;5013609;28;20030;-61
2022/12/06 11:29:23;;;;;;;14.13;11.00;;;2.90;99.90;;;;;;5013541;28;20410;-62
2022/12/06 11:32:13;;;;;;;13.65;10.80;;;3.00;99.90;;;;;;5013591;28;20097;-63
2022/12/06 11:35:00;;;;;;;13.45;10.55;;;3.00;99.90;;;;;;5003926;28;20031;-60
2022/12/06 11:37:49;;;;;;;13.90;10.55;;;3.00;99.90;;;;;;5006037;28;20034;-60
2022/12/06 11:40:40;;;;;;;13.95;11.10;;;3.10;99.90;;;;;;4992795;28;20030;-61
2022/12/06 11:43:31;;;;;;;12.23;9.98;;;3.30;99.90;;;;;;5006270;28;20022;-61
2022/12/06 11:46:17;;;;;;;15.40;10.90;;;3.10;99.90;;;;;;5014507;28;20127;-60
2022/12/06 11:49:40;;;;;;;13.63;9.77;;;3.10;99.90;;;;;;5009858;28;20022;-59
2022/12/06 11:52:56;;;;;;;12.65;10.13;;;3.10;99.90;;;;;;4996906;28;20034;-61
2022/12/06 11:55:45;;;;;;;13.20;10.60;;;3.20;99.90;;;;;;5009098;28;20695;-61
2022/12/06 11:58:38;;;;;;;13.50;10.13;;;3.00;99.90;;;;;;5008728;28;20030;-62
2022/12/06 12:01:43;;;;;;;14.25;11.43;;;2.90;99.90;;;;;;5009311;28;20026;-61
2022/12/06 12:04:40;;;;;;;14.00;10.05;;;2.90;99.90;;;;;;5013726;28;20520;-62
2022/12/06 12:07:27;;;;;;;13.70;10.32;;;3.00;99.90;;;;;;5012263;28;20466;-62
2022/12/06 12:10:27;;;;;;;12.45;10.57;;;3.00;99.90;;;;;;5012629;28;20034;-61
2022/12/06 12:16:23;;;;;;;18.15;11.25;;;3.00;99.90;;;;;;5008343;28;20062;-62
2022/12/06 12:19:38;;;;;;;13.40;11.00;;;3.10;99.90;;;;;;5006001;28;20030;-59
2022/12/06 12:22:39;;;;;;;13.13;11.03;;;3.20;99.90;;;;;;5005595;28;20034;-59
2022/12/06 12:25:30;;;;;;;15.38;10.18;;;3.20;99.90;;;;;;5013317;28;20030;-59
2022/12/06 12:28:37;;;;;;;14.20;10.40;;;3.30;99.90;;;;;;5009062;28;20033;-60
2022/12/06 12:31:25;;;;;;;12.43;10.55;;;3.10;99.90;;;;;;4994343;28;20034;-62
2022/12/06 12:34:30;;;;;;;14.77;10.60;;;3.10;99.90;;;;;;5011385;28;20038;-58
2022/12/06 12:37:20;;;;;;;12.88;10.15;;;3.10;99.90;;;;;;5012709;28;20109;-60
2022/12/06 12:40:21;;;;;;;11.80;10.00;;;3.20;99.90;;;;;;5009366;28;20407;-59
2022/12/06 12:43:14;;;;;;;13.05;10.20;;;3.30;99.90;;;;;;5009251;28;20065;-61
2022/12/06 12:46:08;;;;;;;11.80;9.82;;;3.20;99.90;;;;;;5006566;28;20476;-60
2022/12/06 12:49:24;;;;;;;11.13;9.43;;;3.20;99.90;;;;;;5006321;28;20072;-60
2022/12/06 12:52:26;;;;;;;11.48;8.27;;;3.30;99.90;;;;;;5011253;28;20025;-60
2022/12/06 12:55:12;;;;;;;11.05;9.23;;;3.30;99.90;;;;;;5009883;28;20038;-61
2022/12/06 12:57:59;;;;;;;10.48;8.15;;;3.20;99.90;;;;;;4993355;28;20033;-62
2022/12/06 13:00:47;;;;;;;11.73;8.77;;;3.30;99.90;;;;;;4987710;28;21019;-62
2022/12/06 13:03:34;;;;;;;12.55;9.75;;;3.20;99.90;;;;;;5005968;28;20044;-60
2022/12/06 13:06:28;;;;;;;11.80;8.93;;;3.10;99.90;;;;;;5010531;28;20088;-62
2022/12/06 13:09:43;;;;;;;11.88;9.57;;;3.10;99.90;;;;;;5009638;28;20487;-61
2022/12/06 13:12:33;;;;;;;14.73;9.95;;;3.10;99.90;;;;;;5011807;28;20073;-62
2022/12/06 13:15:45;;;;;;;11.73;9.85;;;3.10;99.90;;;;;;5011200;28;20038;-62
2022/12/06 13:18:41;;;;;;;12.07;9.55;;;3.20;99.90;;;;;;5000661;28;20031;-59
2022/12/06 13:21:36;;;;;;;12.50;9.68;;;3.20;99.90;;;;;;5007225;28;20054;-61
2022/12/06 13:24:29;;;;;;;13.02;10.02;;;3.00;99.90;;;;;;5006653;28;20053;-62
2022/12/06 13:27:19;;;;;;;11.15;9.05;;;3.00;99.90;;;;;;4991723;28;20499;-60
2022/12/06 13:30:12;;;;;;;13.23;9.75;;;3.00;99.90;;;;;;5003166;28;20513;-60
2022/12/06 13:33:03;;;;;;;13.77;9.57;;;3.10;99.90;;;;;;5009843;28;20510;-62
2022/12/06 13:36:06;;;;;;;12.25;9.48;;;3.20;99.90;;;;;;5008150;28;20445;-60
2022/12/06 13:38:54;;;;;;;11.25;9.38;;;3.20;99.90;;;;;;5010167;28;20502;-62
2022/12/06 13:44:59;;;;;;;10.07;8.70;;;3.10;99.90;;;;;;5011832;28;20537;-61
2022/12/06 13:47:49;;;;;;;12.43;8.88;;;3.10;99.90;;;;;;5010862;28;20046;-61
2022/12/06 13:50:35;;;;;;;11.10;9.07;;;3.20;99.90;;;;;;5011075;28;20211;-60
2022/12/06 13:53:23;;;;;;;11.63;8.65;;;3.00;99.90;;;;;;5006882;28;20120;-59
2022/12/06 13:56:32;;;;;;;11.32;9.43;;;3.10;99.90;;;;;;5007271;28;20030;-59
2022/12/06 13:59:18;;;;;;;11.48;9.30;;;2.90;99.90;;;;;;5009254;28;20499;-63
2022/12/06 14:02:41;;;;;;;12.45;9.73;;;2.90;99.90;;;;;;5000721;28;20030;-62
2022/12/06 14:05:52;;;;;;;11.68;9.48;;;3.00;99.90;;;;;;5010207;28;20069;-61
2022/12/06 14:09:09;;;;;;;10.63;9.55;;;2.90;99.90;;;;;;4990372;28;20065;-61
2022/12/06 14:11:59;;;;;;;11.95;9.70;;;2.90;99.90;;;;;;4999634;28;20030;-62
2022/12/06 14:15:01;;;;;;;11.40;9.60;;;3.10;99.90;;;;;;4977928;28;20045;-62
2022/12/06 14:17:46;;;;;;;18.63;10.20;;;3.30;99.90;;;;;;4983322;28;20053;-64
2022/12/06 14:20:32;;;;;;;13.98;9.05;;;3.30;99.90;;;;;;4981651;28;20057;-63
2022/12/06 14:23:33;;;;;;;13.00;9.68;;;3.20;99.90;;;;;;5010753;28;20030;-61
2022/12/06 14:26:27;;;;;;;13.13;8.85;;;3.30;99.90;;;;;;5011150;28;20037;-64
2022/12/06 14:29:23;;;;;;;11.80;9.02;;;3.20;99.90;;;;;;4997405;28;20026;-60
2022/12/06 14:32:10;;;;;;;11.73;9.27;;;3.10;99.90;;;;;;5002776;28;20034;-63
2022/12/06 14:35:07;;;;;;;10.80;8.82;;;3.10;99.90;;;;;;4996587;28;20514;-64
2022/12/06 14:37:57;;;;;;;10.93;8.57;;;3.20;99.90;;;;;;4991155;28;20027;-62
2022/12/06 14:43:48;;;;;;;10.00;8.50;;;3.30;99.90;;;;;;4990730;28;20022;-61
2022/12/06 14:46:35;;;;;;;11.05;8.20;;;3.40;99.90;;;;;;4993354;28;20122;-62
2022/12/06 14:52:30;;;;;;;11.15;9.23;;;3.40;99.90;;;;;;4983220;28;20030;-61
2022/12/06 14:55:18;;;;;;;48.58;29.13;;;3.40;99.90;;;;;;4994738;28;20026;-61
2022/12/06 14:58:16;;;;;;;22.80;14.50;;;3.40;99.90;;;;;;4994517;28;20452;-63
2022/12/06 15:01:19;;;;;;;11.75;8.70;;;3.40;99.90;;;;;;4994939;28;20491;-63
2022/12/06 15:04:08;;;;;;;11.05;9.32;;;3.50;99.90;;;;;;4994662;28;20034;-63
2022/12/06 15:06:55;;;;;;;9.25;8.15;;;3.50;99.90;;;;;;4980558;28;20072;-62
2022/12/06 15:09:44;;;;;;;11.65;9.13;;;3.50;99.90;;;;;;4997020;28;20454;-62
2022/12/06 15:15:43;;;;;;;15.32;9.23;;;3.20;99.90;;;;;;4995412;28;20035;-64
2022/12/06 15:18:36;;;;;;;11.63;9.57;;;3.30;99.90;;;;;;4994149;28;20030;-62
2022/12/06 15:21:22;;;;;;;12.38;9.20;;;3.30;99.90;;;;;;5012742;28;20478;-60